sensor_id;sensor_type;location;lat;lon;timestamp;pressure;altitude;pressure_sealevel;temperature;humidity
48792;BME280;34587;48.816;9.420;2024-02-14T00:01:27;99302.22;;;1.88;100.00
48792;BME280;34587;48.816;9.420;2024-02-14T00:03:53;99292.84;;;1.88;100.00
48792;BME280;34587;48.816;9.420;2024-02-14T00:06:18;99296.22;;;1.86;100.00
48792;BME280;34587;48.816;9.420;2024-02-14T00:08:43;99295.88;;;1.73;100.00
48792;BME280;34587;48.816;9.420;2024-02-14T00:11:09;99306.94;;;1.72;100.00
48792;BME280;34587;48.816;9.420;2024-02-14T00:13:35;99298.50;;;1.75;100.00
48792;BME280;34587;48.816;9.420;2024-02-14T00:16:01;99301.19;;;1.79;100.00
48792;BME280;34587;48.816;9.420;2024-02-14T00:18:26;99297.81;;;1.82;100.00
48792;BME280;34587;48.816;9.420;2024-02-14T00:20:52;99301.22;;;1.83;100.00
48792;BME280;34587;48.816;9.420;2024-02-14T00:23:17;99307.38;;;1.89;100.00
48792;BME280;34587;48.816;9.420;2024-02-14T00:25:43;99303.97;;;1.89;100.00
48792;BME280;34587;48.816;9.420;2024-02-14T00:28:08;99303.78;;;1.83;100.00
48792;BME280;34587;48.816;9.420;2024-02-14T00:30:33;99298.38;;;2.05;100.00
48792;BME280;34587;48.816;9.420;2024-02-14T00:32:59;99293.19;;;2.02;100.00
48792;BME280;34587;48.816;9.420;2024-02-14T00:35:24;99296.72;;;2.07;100.00
48792;BME280;34587;48.816;9.420;2024-02-14T00:37:50;99295.69;;;1.99;100.00
48792;BME280;34587;48.816;9.420;2024-02-14T00:40:15;99293.19;;;2.02;100.00
48792;BME280;34587;48.816;9.420;2024-02-14T00:42:41;99294.88;;;2.00;100.00
48792;BME280;34587;48.816;9.420;2024-02-14T00:45:07;99296.25;;;1.87;100.00
48792;BME280;34587;48.816;9.420;2024-02-14T00:47:35;99294.63;;;1.91;100.00
48792;BME280;34587;48.816;9.420;2024-02-14T00:50:02;99301.22;;;1.83;100.00
48792;BME280;34587;48.816;9.420;2024-02-14T00:52:27;99303.91;;;1.87;100.00
48792;BME280;34587;48.816;9.420;2024-02-14T00:54:53;99299.59;;;1.85;100.00
48792;BME280;34587;48.816;9.420;2024-02-14T00:57:18;99303.13;;;1.90;100.00
48792;BME280;34587;48.816;9.420;2024-02-14T00:59:44;99302.91;;;1.80;100.00
48792;BME280;34587;48.816;9.420;2024-02-14T05:15:35;99307.59;;;3.13;100.00
48792;BME280;34587;48.816;9.420;2024-02-14T05:18:00;99305.09;;;3.15;100.00
48792;BME280;34587;48.816;9.420;2024-02-14T05:20:26;99312.03;;;3.20;100.00
48792;BME280;34587;48.816;9.420;2024-02-14T05:22:51;99312.16;;;3.26;100.00
48792;BME280;34587;48.816;9.420;2024-02-14T05:25:16;99314.63;;;3.23;100.00
48792;BME280;34587;48.816;9.420;2024-02-14T05:27:43;99299.63;;;3.42;100.00
48792;BME280;34587;48.816;9.420;2024-02-14T05:30:12;99304.66;;;3.35;100.00
48792;BME280;34587;48.816;9.420;2024-02-14T05:32:37;99304.84;;;3.46;100.00
48792;BME280;34587;48.816;9.420;2024-02-14T05:35:03;99303.31;;;3.56;100.00
48792;BME280;34587;48.816;9.420;2024-02-14T05:37:31;99298.13;;;3.53;100.00
48792;BME280;34587;48.816;9.420;2024-02-14T05:39:57;99291.63;;;3.70;100.00
48792;BME280;34587;48.816;9.420;2024-02-14T05:42:22;99291.56;;;3.67;100.00
48792;BME280;34587;48.816;9.420;2024-02-14T05:44:48;99303.41;;;3.62;100.00
48792;BME280;34587;48.816;9.420;2024-02-14T05:47:13;99305.97;;;3.62;100.00
48792;BME280;34587;48.816;9.420;2024-02-14T05:49:40;99298.38;;;3.65;100.00
48792;BME280;34587;48.816;9.420;2024-02-14T05:52:06;99298.47;;;3.71;100.00
48792;BME280;34587;48.816;9.420;2024-02-14T05:54:31;99301.88;;;3.70;100.00
48792;BME280;34587;48.816;9.420;2024-02-14T05:56:57;99301.88;;;3.70;100.00
48792;BME280;34587;48.816;9.420;2024-02-14T05:59:23;99297.50;;;3.65;100.00
48792;BME280;34587;48.816;9.420;2024-02-14T06:01:48;99299.19;;;3.64;100.00
48792;BME280;34587;48.816;9.420;2024-02-14T06:04:13;99295.72;;;3.62;100.00
48792;BME280;34587;48.816;9.420;2024-02-14T06:06:38;99291.19;;;3.46;100.00
48792;BME280;34587;48.816;9.420;2024-02-14T06:09:04;99282.63;;;3.44;100.00
48792;BME280;34587;48.816;9.420;2024-02-14T06:11:35;99290.50;;;3.56;100.00
48792;BME280;34587;48.816;9.420;2024-02-14T06:14:00;99295.91;;;3.71;100.00
48792;BME280;34587;48.816;9.420;2024-02-14T06:16:25;99292.56;;;3.75;100.00
48792;BME280;34587;48.816;9.420;2024-02-14T06:18:51;99292.19;;;3.54;100.00
48792;BME280;34587;48.816;9.420;2024-02-14T06:21:16;99293.25;;;3.65;100.00
48792;BME280;34587;48.816;9.420;2024-02-14T06:23:41;99294.97;;;3.66;100.00
48792;BME280;34587;48.816;9.420;2024-02-14T06:26:07;99294.97;;;3.66;100.00
48792;BME280;34587;48.816;9.420;2024-02-14T06:28:32;99295.81;;;3.65;100.00
48792;BME280;34587;48.816;9.420;2024-02-14T06:30:57;99301.69;;;3.61;100.00
48792;BME280;34587;48.816;9.420;2024-02-14T06:33:23;99298.38;;;3.65;100.00
48792;BME280;34587;48.816;9.420;2024-02-14T06:35:48;99298.44;;;3.68;100.00
48792;BME280;34587;48.816;9.420;2024-02-14T06:38:14;99307.16;;;3.79;100.00
48792;BME280;34587;48.816;9.420;2024-02-14T06:40:39;99313.06;;;3.75;100.00
48792;BME280;34587;48.816;9.420;2024-02-14T06:43:05;99309.56;;;3.72;100.00
48792;BME280;34587;48.816;9.420;2024-02-14T06:45:32;99316.66;;;3.86;100.00
48792;BME280;34587;48.816;9.420;2024-02-14T06:47:57;99317.47;;;3.82;100.00
48792;BME280;34587;48.816;9.420;2024-02-14T06:50:22;99316.63;;;3.83;100.00
48792;BME280;34587;48.816;9.420;2024-02-14T06:52:50;99318.28;;;3.80;100.00
48792;BME280;34587;48.816;9.420;2024-02-14T06:55:16;99319.81;;;3.72;100.00
48792;BME280;34587;48.816;9.420;2024-02-14T06:57:41;99318.28;;;3.80;100.00
48792;BME280;34587;48.816;9.420;2024-02-14T07:00:07;99315.72;;;3.81;100.00
48792;BME280;34587;48.816;9.420;2024-02-14T07:02:34;99314.91;;;3.82;100.00
48792;BME280;34587;48.816;9.420;2024-02-14T07:04:59;99311.44;;;3.79;100.00
48792;BME280;34587;48.816;9.420;2024-02-14T07:07:24;99314.00;;;3.80;100.00
48792;BME280;34587;48.816;9.420;2024-02-14T07:09:50;99312.34;;;3.82;100.00
48792;BME280;34587;48.816;9.420;2024-02-14T07:12:16;99307.25;;;3.85;100.00
48792;BME280;34587;48.816;9.420;2024-02-14T07:14:41;99314.16;;;3.90;100.00
48792;BME280;34587;48.816;9.420;2024-02-14T07:17:07;99316.16;;;4.06;100.00
48792;BME280;34587;48.816;9.420;2024-02-14T07:19:32;99310.88;;;3.97;100.00
48792;BME280;34587;48.816;9.420;2024-02-14T07:21:57;99314.50;;;4.08;100.00
48792;BME280;34587;48.816;9.420;2024-02-14T07:24:23;99314.56;;;4.11;100.00
48792;BME280;34587;48.816;9.420;2024-02-14T07:26:48;99309.44;;;4.14;100.00
48792;BME280;34587;48.816;9.420;2024-02-14T07:29:13;99316.22;;;4.09;100.00
48792;BME280;34587;48.816;9.420;2024-02-14T07:31:39;99320.56;;;4.13;100.00
48792;BME280;34587;48.816;9.420;2024-02-14T07:34:04;99314.72;;;4.23;100.00
48792;BME280;34587;48.816;9.420;2024-02-14T07:36:30;99319.38;;;4.47;100.00
48792;BME280;34587;48.816;9.420;2024-02-14T07:38:55;99328.06;;;4.55;100.00
48792;BME280;34587;48.816;9.420;2024-02-14T07:41:21;99322.00;;;4.52;100.00
48792;BME280;34587;48.816;9.420;2024-02-14T07:43:46;99324.66;;;4.56;100.00
48792;BME280;34587;48.816;9.420;2024-02-14T07:46:19;99330.06;;;4.78;100.00
48792;BME280;34587;48.816;9.420;2024-02-14T07:48:44;99334.41;;;4.80;100.00
48792;BME280;34587;48.816;9.420;2024-02-14T07:51:10;99337.97;;;4.88;100.00
48792;BME280;34587;48.816;9.420;2024-02-14T07:53:36;99332.28;;;5.14;100.00
48792;BME280;34587;48.816;9.420;2024-02-14T07:56:01;99344.16;;;5.04;100.00
48792;BME280;34587;48.816;9.420;2024-02-14T07:58:26;99342.44;;;5.05;100.00
48792;BME280;34587;48.816;9.420;2024-02-14T08:00:52;99343.13;;;4.92;100.00
48792;BME280;34587;48.816;9.420;2024-02-14T08:03:17;99355.03;;;4.86;100.00
48792;BME280;34587;48.816;9.420;2024-02-14T08:05:42;99362.72;;;4.85;100.00
48792;BME280;34587;48.816;9.420;2024-02-14T08:08:07;99353.25;;;4.82;100.00
48792;BME280;34587;48.816;9.420;2024-02-14T08:10:33;99350.63;;;4.78;100.00
48792;BME280;34587;48.816;9.420;2024-02-14T08:12:58;99354.03;;;4.77;100.00
48792;BME280;34587;48.816;9.420;2024-02-14T08:15:24;99358.38;;;4.79;100.00
48792;BME280;34587;48.816;9.420;2024-02-14T08:17:49;99356.72;;;4.84;100.00
48792;BME280;34587;48.816;9.420;2024-02-14T08:20:14;99362.72;;;4.86;100.00
48792;BME280;34587;48.816;9.420;2024-02-14T08:22:40;99365.38;;;4.93;100.00
48792;BME280;34587;48.816;9.420;2024-02-14T08:25:05;99366.22;;;4.93;100.00
48792;BME280;34587;48.816;9.420;2024-02-14T08:27:30;99370.50;;;4.93;100.00
48792;BME280;34587;48.816;9.420;2024-02-14T08:29:56;99360.34;;;4.99;100.00
48792;BME280;34587;48.816;9.420;2024-02-14T08:32:22;99358.81;;;5.13;100.00
48792;BME280;34587;48.816;9.420;2024-02-14T08:34:47;99354.69;;;5.26;100.00
48792;BME280;34587;48.816;9.420;2024-02-14T08:37:13;99363.47;;;5.43;100.00
48792;BME280;34587;48.816;9.420;2024-02-14T08:39:38;99354.16;;;5.53;100.00
48792;BME280;34587;48.816;9.420;2024-02-14T08:42:03;99354.19;;;5.56;100.00
48792;BME280;34587;48.816;9.420;2024-02-14T08:44:35;99357.72;;;5.64;100.00
48792;BME280;34587;48.816;9.420;2024-02-14T08:47:01;99353.47;;;5.66;100.00
48792;BME280;34587;48.816;9.420;2024-02-14T08:49:26;99360.28;;;5.61;100.00
48792;BME280;34587;48.816;9.420;2024-02-14T08:51:51;99359.44;;;5.65;100.00
48792;BME280;34587;48.816;9.420;2024-02-14T08:54:16;99351.81;;;5.73;100.00
48792;BME280;34587;48.816;9.420;2024-02-14T08:56:42;99352.81;;;5.88;100.00
48792;BME280;34587;48.816;9.420;2024-02-14T08:59:07;99348.53;;;5.87;100.00
48792;BME280;34587;48.816;9.420;2024-02-14T09:01:32;99344.66;;;6.28;100.00
48792;BME280;34587;48.816;9.420;2024-02-14T09:03:58;99341.50;;;6.64;100.00
48792;BME280;34587;48.816;9.420;2024-02-14T09:06:24;99330.66;;;7.21;100.00
48792;BME280;34587;48.816;9.420;2024-02-14T09:08:51;99336.03;;;7.89;100.00
48792;BME280;34587;48.816;9.420;2024-02-14T09:11:17;99332.63;;;8.33;100.00
48792;BME280;34587;48.816;9.420;2024-02-14T09:13:42;99329.94;;;9.08;100.00
48792;BME280;34587;48.816;9.420;2024-02-14T09:16:08;99330.81;;;9.14;100.00
48792;BME280;34587;48.816;9.420;2024-02-14T09:18:34;99330.84;;;8.93;100.00
48792;BME280;34587;48.816;9.420;2024-02-14T09:21:00;99339.50;;;8.75;100.00
48792;BME280;34587;48.816;9.420;2024-02-14T09:23:26;99342.06;;;8.75;100.00
48792;BME280;34587;48.816;9.420;2024-02-14T09:25:51;99345.50;;;8.83;100.00
48792;BME280;34587;48.816;9.420;2024-02-14T09:28:17;99348.06;;;9.09;100.00
48792;BME280;34587;48.816;9.420;2024-02-14T09:30:43;99354.16;;;8.76;100.00
48792;BME280;34587;48.816;9.420;2024-02-14T09:33:08;99352.44;;;8.63;100.00
48792;BME280;34587;48.816;9.420;2024-02-14T09:35:34;99352.44;;;8.63;100.00
48792;BME280;34587;48.816;9.420;2024-02-14T09:38:00;99357.59;;;8.44;100.00
48792;BME280;34587;48.816;9.420;2024-02-14T09:40:26;99362.78;;;8.47;100.00
48792;BME280;34587;48.816;9.420;2024-02-14T09:42:55;99355.91;;;8.62;100.00
48792;BME280;34587;48.816;9.420;2024-02-14T09:45:25;99355.00;;;8.86;100.00
48792;BME280;34587;48.816;9.420;2024-02-14T09:47:52;99358.44;;;8.69;100.00
48792;BME280;34587;48.816;9.420;2024-02-14T09:50:18;99345.47;;;9.11;100.00
48792;BME280;34587;48.816;9.420;2024-02-14T09:52:48;99338.56;;;9.10;100.00
48792;BME280;34587;48.816;9.420;2024-02-14T09:55:15;99335.78;;;9.59;100.00
48792;BME280;34587;48.816;9.420;2024-02-14T09:57:41;99342.50;;;9.92;100.00
48792;BME280;34587;48.816;9.420;2024-02-14T10:00:09;99336.25;;;10.22;100.00
48792;BME280;34587;48.816;9.420;2024-02-14T10:02:35;99348.00;;;10.69;100.00
48792;BME280;34587;48.816;9.420;2024-02-14T10:05:00;99322.59;;;11.71;100.00
48792;BME280;34587;48.816;9.420;2024-02-14T10:07:26;99323.06;;;11.99;100.00
48792;BME280;34587;48.816;9.420;2024-02-14T10:09:52;99314.94;;;13.18;100.00
48792;BME280;34587;48.816;9.420;2024-02-14T10:12:18;99319.34;;;13.16;100.00
48792;BME280;34587;48.816;9.420;2024-02-14T10:14:44;99318.19;;;15.43;76.41
48792;BME280;34587;48.816;9.420;2024-02-14T10:17:17;99317.63;;;15.61;74.35
48792;BME280;34587;48.816;9.420;2024-02-14T10:19:43;99319.16;;;17.04;68.22
48792;BME280;34587;48.816;9.420;2024-02-14T10:22:08;99305.59;;;17.63;58.67
48792;BME280;34587;48.816;9.420;2024-02-14T10:24:33;99312.84;;;18.66;54.77
48792;BME280;34587;48.816;9.420;2024-02-14T10:26:59;99322.28;;;17.14;57.36
48792;BME280;34587;48.816;9.420;2024-02-14T10:29:25;99327.44;;;16.39;60.53
48792;BME280;34587;48.816;9.420;2024-02-14T10:31:50;99320.06;;;16.25;60.51
48792;BME280;34587;48.816;9.420;2024-02-14T10:34:18;99323.69;;;16.99;57.77
48792;BME280;34587;48.816;9.420;2024-02-14T10:36:43;99306.19;;;18.80;49.07
48792;BME280;34587;48.816;9.420;2024-02-14T10:39:11;99294.81;;;19.76;46.75
48792;BME280;34587;48.816;9.420;2024-02-14T10:41:36;99301.78;;;18.80;47.63
48792;BME280;34587;48.816;9.420;2024-02-14T10:44:05;99292.78;;;19.06;47.19
48792;BME280;34587;48.816;9.420;2024-02-14T10:46:32;99295.56;;;18.83;48.32
48792;BME280;34587;48.816;9.420;2024-02-14T10:49:02;99297.59;;;18.96;47.45
48792;BME280;34587;48.816;9.420;2024-02-14T10:51:31;99296.91;;;21.76;40.85
48792;BME280;34587;48.816;9.420;2024-02-14T10:53:57;99306.44;;;21.63;41.04
48792;BME280;34587;48.816;9.420;2024-02-14T10:56:28;99310.16;;;20.58;42.32
48792;BME280;34587;48.816;9.420;2024-02-14T10:58:56;99304.84;;;19.10;46.65
48792;BME280;34587;48.816;9.420;2024-02-14T11:01:24;99307.06;;;18.38;50.23
48792;BME280;34587;48.816;9.420;2024-02-14T11:03:51;99300.13;;;19.37;48.28
48792;BME280;34587;48.816;9.420;2024-02-14T11:06:16;99307.19;;;17.20;54.69
48792;BME280;34587;48.816;9.420;2024-02-14T11:09:03;99298.75;;;17.59;56.03
48792;BME280;34587;48.816;9.420;2024-02-14T11:11:33;99311.75;;;16.39;61.05
48792;BME280;34587;48.816;9.420;2024-02-14T11:13:58;99312.88;;;15.76;67.55
48792;BME280;34587;48.816;9.420;2024-02-14T11:16:27;99318.19;;;14.81;77.02
48792;BME280;34587;48.816;9.420;2024-02-14T11:19:05;99313.63;;;16.87;63.68
48792;BME280;34587;48.816;9.420;2024-02-14T11:21:31;99314.38;;;15.84;67.42
48792;BME280;34587;48.816;9.420;2024-02-14T11:23:56;99311.69;;;15.27;73.77
48792;BME280;34587;48.816;9.420;2024-02-14T11:26:24;99311.59;;;14.30;83.64
48792;BME280;34587;48.816;9.420;2024-02-14T11:28:59;99304.25;;;13.33;94.79
48792;BME280;34587;48.816;9.420;2024-02-14T11:31:32;99325.81;;;12.93;100.00
48792;BME280;34587;48.816;9.420;2024-02-14T11:34:02;99320.56;;;12.47;100.00
48792;BME280;34587;48.816;9.420;2024-02-14T11:36:29;99319.78;;;12.43;100.00
48792;BME280;34587;48.816;9.420;2024-02-14T11:38:55;99318.00;;;12.45;100.00
48792;BME280;34587;48.816;9.420;2024-02-14T11:41:21;99318.00;;;12.45;100.00
48792;BME280;34587;48.816;9.420;2024-02-14T11:43:52;99314.44;;;12.52;100.00
48792;BME280;34587;48.816;9.420;2024-02-14T11:46:17;99309.41;;;12.43;100.00
48792;BME280;34587;48.816;9.420;2024-02-14T11:48:43;99306.66;;;12.52;100.00
48792;BME280;34587;48.816;9.420;2024-02-14T11:51:11;99298.66;;;12.61;100.00
48792;BME280;34587;48.816;9.420;2024-02-14T11:53:36;99305.69;;;12.56;100.00
48792;BME280;34587;48.816;9.420;2024-02-14T11:56:01;99304.13;;;12.46;100.00
48792;BME280;34587;48.816;9.420;2024-02-14T11:58:27;99302.56;;;12.36;100.00
48792;BME280;34587;48.816;9.420;2024-02-14T12:00:53;99298.28;;;12.33;100.00
48792;BME280;34587;48.816;9.420;2024-02-14T12:03:20;99295.78;;;12.29;100.00
48792;BME280;34587;48.816;9.420;2024-02-14T12:05:49;99299.16;;;12.32;100.00
48792;BME280;34587;48.816;9.420;2024-02-14T12:08:16;99293.56;;;12.55;100.00
48792;BME280;34587;48.816;9.420;2024-02-14T12:10:43;99294.13;;;12.73;100.00
48792;BME280;34587;48.816;9.420;2024-02-14T12:13:13;99302.38;;;12.48;100.00
48792;BME280;34587;48.816;9.420;2024-02-14T12:15:39;99302.56;;;12.36;100.00
48792;BME280;34587;48.816;9.420;2024-02-14T12:18:05;99304.66;;;12.16;100.00
48792;BME280;34587;48.816;9.420;2024-02-14T12:20:31;99314.09;;;12.18;100.00
48792;BME280;34587;48.816;9.420;2024-02-14T12:22:58;99313.88;;;12.33;100.00
48792;BME280;34587;48.816;9.420;2024-02-14T12:25:23;99314.03;;;12.24;100.00
48792;BME280;34587;48.816;9.420;2024-02-14T12:27:52;99310.44;;;12.31;100.00
48792;BME280;34587;48.816;9.420;2024-02-14T12:30:18;99311.31;;;12.30;100.00
48792;BME280;34587;48.816;9.420;2024-02-14T12:32:45;99304.34;;;12.34;100.00
48792;BME280;34587;48.816;9.420;2024-02-14T12:35:11;99301.91;;;12.25;100.00
48792;BME280;34587;48.816;9.420;2024-02-14T12:37:36;99313.94;;;12.30;100.00
48792;BME280;34587;48.816;9.420;2024-02-14T12:40:03;99314.63;;;12.40;100.00
48792;BME280;34587;48.816;9.420;2024-02-14T12:42:29;99313.03;;;12.33;100.00
48792;BME280;34587;48.816;9.420;2024-02-14T12:44:54;99304.09;;;12.49;100.00
48792;BME280;34587;48.816;9.420;2024-02-14T12:47:20;99302.75;;;12.75;100.00
48792;BME280;34587;48.816;9.420;2024-02-14T12:49:47;99293.59;;;13.45;100.00
48792;BME280;34587;48.816;9.420;2024-02-14T12:52:13;99284.59;;;14.33;100.00
48792;BME280;34587;48.816;9.420;2024-02-14T12:54:39;99280.88;;;14.43;100.00
48792;BME280;34587;48.816;9.420;2024-02-14T12:57:04;99282.69;;;14.75;97.16
48792;BME280;34587;48.816;9.420;2024-02-14T12:59:29;99275.16;;;14.96;95.59
48792;BME280;34587;48.816;9.420;2024-02-14T13:01:55;99283.53;;;14.76;93.14
48792;BME280;34587;48.816;9.420;2024-02-14T13:04:20;99272.97;;;15.11;93.70
48792;BME280;34587;48.816;9.420;2024-02-14T13:06:46;99272.91;;;15.13;91.81
48792;BME280;34587;48.816;9.420;2024-02-14T13:09:13;99263.25;;;15.46;87.10
48792;BME280;34587;48.816;9.420;2024-02-14T13:11:39;99260.00;;;15.08;91.75
48792;BME280;34587;48.816;9.420;2024-02-14T13:14:05;99261.34;;;15.22;90.61
48792;BME280;34587;48.816;9.420;2024-02-14T13:16:31;99259.81;;;16.28;84.98
48792;BME280;34587;48.816;9.420;2024-02-14T13:18:56;99263.03;;;16.36;78.60
48792;BME280;34587;48.816;9.420;2024-02-14T13:21:22;99260.25;;;16.14;78.18
48792;BME280;34587;48.816;9.420;2024-02-14T13:23:47;99263.56;;;16.19;80.64
48792;BME280;34587;48.816;9.420;2024-02-14T13:26:13;99263.75;;;15.29;86.29
48792;BME280;34587;48.816;9.420;2024-02-14T13:28:39;99260.88;;;15.68;87.39
48792;BME280;34587;48.816;9.420;2024-02-14T13:31:05;99262.34;;;15.47;86.02
48792;BME280;34587;48.816;9.420;2024-02-14T13:33:31;99250.66;;;15.01;92.34
48792;BME280;34587;48.816;9.420;2024-02-14T13:35:56;99250.47;;;15.37;89.63
48792;BME280;34587;48.816;9.420;2024-02-14T13:38:21;99245.44;;;15.31;89.21
48792;BME280;34587;48.816;9.420;2024-02-14T13:40:47;99238.03;;;15.75;85.81
48792;BME280;34587;48.816;9.420;2024-02-14T13:43:12;99248.38;;;15.20;88.86
48792;BME280;34587;48.816;9.420;2024-02-14T13:45:42;99250.22;;;14.53;98.31
48792;BME280;34587;48.816;9.420;2024-02-14T13:48:08;99255.22;;;14.62;96.85
48792;BME280;34587;48.816;9.420;2024-02-14T13:50:34;99247.31;;;14.65;96.74
48792;BME280;34587;48.816;9.420;2024-02-14T13:53:00;99245.88;;;14.53;98.29
48792;BME280;34587;48.816;9.420;2024-02-14T13:55:25;99243.06;;;14.61;98.42
48792;BME280;34587;48.816;9.420;2024-02-14T13:57:50;99246.41;;;14.32;100.00
48792;BME280;34587;48.816;9.420;2024-02-14T14:00:16;99260.81;;;14.11;100.00
48792;BME280;34587;48.816;9.420;2024-02-14T14:02:41;99257.94;;;13.86;100.00
48792;BME280;34587;48.816;9.420;2024-02-14T14:05:07;99257.00;;;13.90;100.00
48792;BME280;34587;48.816;9.420;2024-02-14T14:07:41;99244.41;;;14.07;100.00
48792;BME280;34587;48.816;9.420;2024-02-14T14:10:07;99252.25;;;14.07;100.00
48792;BME280;34587;48.816;9.420;2024-02-14T14:12:33;99251.91;;;14.20;100.00
48792;BME280;34587;48.816;9.420;2024-02-14T14:14:58;99238.75;;;13.90;100.00
48792;BME280;34587;48.816;9.420;2024-02-14T14:17:24;99243.63;;;14.04;100.00
48792;BME280;34587;48.816;9.420;2024-02-14T14:19:49;99246.28;;;14.02;100.00
48792;BME280;34587;48.816;9.420;2024-02-14T14:22:15;99250.81;;;13.94;100.00
48792;BME280;34587;48.816;9.420;2024-02-14T14:24:41;99257.25;;;13.78;100.00
48792;BME280;34587;48.816;9.420;2024-02-14T14:27:07;99249.34;;;13.45;100.00
48792;BME280;34587;48.816;9.420;2024-02-14T14:29:34;99242.19;;;13.53;100.00
48792;BME280;34587;48.816;9.420;2024-02-14T14:32:00;99239.28;;;13.69;100.00
48792;BME280;34587;48.816;9.420;2024-02-14T14:34:26;99242.53;;;13.77;100.00
48792;BME280;34587;48.816;9.420;2024-02-14T14:36:52;99242.31;;;13.86;100.00
48792;BME280;34587;48.816;9.420;2024-02-14T14:39:20;99251.09;;;13.82;100.00
48792;BME280;34587;48.816;9.420;2024-02-14T14:41:45;99247.84;;;13.74;100.00
48792;BME280;34587;48.816;9.420;2024-02-14T14:44:10;99251.66;;;13.57;100.00
48792;BME280;34587;48.816;9.420;2024-02-14T14:46:37;99250.09;;;13.50;100.00
48792;BME280;34587;48.816;9.420;2024-02-14T14:49:07;99245.16;;;13.38;100.00
48792;BME280;34587;48.816;9.420;2024-02-14T14:51:33;99251.41;;;13.29;100.00
48792;BME280;34587;48.816;9.420;2024-02-14T14:53:58;99252.28;;;13.30;100.00
48792;BME280;34587;48.816;9.420;2024-02-14T14:56:23;99253.19;;;13.27;100.00
48792;BME280;34587;48.816;9.420;2024-02-14T14:58:50;99247.47;;;13.08;100.00
48792;BME280;34587;48.816;9.420;2024-02-14T15:01:16;99252.78;;;13.05;100.00
48792;BME280;34587;48.816;9.420;2024-02-14T15:03:41;99257.88;;;13.08;100.00
48792;BME280;34587;48.816;9.420;2024-02-14T15:06:07;99247.56;;;13.05;100.00
48792;BME280;34587;48.816;9.420;2024-02-14T15:08:32;99253.28;;;13.23;100.00
48792;BME280;34587;48.816;9.420;2024-02-14T15:10:58;99250.03;;;13.11;100.00
48792;BME280;34587;48.816;9.420;2024-02-14T15:13:23;99247.13;;;13.27;100.00
48792;BME280;34587;48.816;9.420;2024-02-14T15:15:49;99248.59;;;12.97;100.00
48792;BME280;34587;48.816;9.420;2024-02-14T15:18:15;99247.75;;;12.96;100.00
48792;BME280;34587;48.816;9.420;2024-02-14T15:20:40;99248.00;;;12.82;100.00
48792;BME280;34587;48.816;9.420;2024-02-14T15:23:06;99247.97;;;12.84;100.00
48792;BME280;34587;48.816;9.420;2024-02-14T15:25:33;99248.75;;;12.89;100.00
48792;BME280;34587;48.816;9.420;2024-02-14T15:27:58;99239.69;;;13.08;100.00
48792;BME280;34587;48.816;9.420;2024-02-14T15:30:25;99240.81;;;12.95;100.00
48792;BME280;34587;48.816;9.420;2024-02-14T15:33:09;99234.06;;;12.85;100.00
48792;BME280;34587;48.816;9.420;2024-02-14T15:35:52;99239.22;;;12.88;100.00
48792;BME280;34587;48.816;9.420;2024-02-14T15:38:18;99231.69;;;12.74;100.00
48792;BME280;34587;48.816;9.420;2024-02-14T15:40:46;99230.84;;;12.74;100.00
48792;BME280;34587;48.816;9.420;2024-02-14T15:43:12;99234.34;;;12.73;100.00
48792;BME280;34587;48.816;9.420;2024-02-14T15:45:37;99248.22;;;12.72;100.00
48792;BME280;34587;48.816;9.420;2024-02-14T15:48:03;99250.97;;;12.64;100.00
48792;BME280;34587;48.816;9.420;2024-02-14T15:50:28;99251.81;;;12.65;100.00
48792;BME280;34587;48.816;9.420;2024-02-14T15:52:54;99255.44;;;12.57;100.00
48792;BME280;34587;48.816;9.420;2024-02-14T15:55:19;99261.47;;;12.56;100.00
48792;BME280;34587;48.816;9.420;2024-02-14T15:57:46;99257.25;;;12.52;100.00
48792;BME280;34587;48.816;9.420;2024-02-14T16:00:12;99255.72;;;12.41;100.00
48792;BME280;34587;48.816;9.420;2024-02-14T16:02:38;99253.31;;;12.30;100.00
48792;BME280;34587;48.816;9.420;2024-02-14T16:05:03;99256.72;;;12.32;100.00
48792;BME280;34587;48.816;9.420;2024-02-14T16:07:29;99266.25;;;12.33;100.00
48792;BME280;34587;48.816;9.420;2024-02-14T16:09:54;99255.94;;;12.27;100.00
48792;BME280;34587;48.816;9.420;2024-02-14T16:12:19;99257.63;;;12.31;100.00
48792;BME280;34587;48.816;9.420;2024-02-14T16:14:45;99263.66;;;12.33;100.00
48792;BME280;34587;48.816;9.420;2024-02-14T16:17:10;99256.81;;;12.29;100.00
48792;BME280;34587;48.816;9.420;2024-02-14T16:19:36;99266.41;;;12.24;100.00
48792;BME280;34587;48.816;9.420;2024-02-14T16:22:01;99260.94;;;12.39;100.00
48792;BME280;34587;48.816;9.420;2024-02-14T16:24:28;99261.22;;;12.24;100.00
48792;BME280;34587;48.816;9.420;2024-02-14T16:26:55;99258.00;;;12.09;100.00
48792;BME280;34587;48.816;9.420;2024-02-14T16:29:21;99264.94;;;12.07;100.00
48792;BME280;34587;48.816;9.420;2024-02-14T16:31:46;99261.66;;;11.96;100.00
48792;BME280;34587;48.816;9.420;2024-02-14T16:34:11;99258.28;;;11.91;100.00
48792;BME280;34587;48.816;9.420;2024-02-14T16:36:37;99261.75;;;11.89;100.00
48792;BME280;34587;48.816;9.420;2024-02-14T16:39:02;99258.38;;;11.85;100.00
48792;BME280;34587;48.816;9.420;2024-02-14T16:41:27;99257.56;;;11.80;100.00
48792;BME280;34587;48.816;9.420;2024-02-14T16:43:53;99263.69;;;11.76;100.00
48792;BME280;34587;48.816;9.420;2024-02-14T16:46:18;99267.16;;;11.75;100.00
48792;BME280;34587;48.816;9.420;2024-02-14T16:48:43;99261.16;;;11.70;100.00
48792;BME280;34587;48.816;9.420;2024-02-14T16:51:09;99261.22;;;11.65;100.00
48792;BME280;34587;48.816;9.420;2024-02-14T16:53:38;99274.22;;;11.64;100.00
48792;BME280;34587;48.816;9.420;2024-02-14T16:56:04;99276.59;;;11.80;100.00
48792;BME280;34587;48.816;9.420;2024-02-14T16:58:29;99274.94;;;11.75;100.00
48792;BME280;34587;48.816;9.420;2024-02-14T17:00:54;99267.00;;;11.87;100.00
48792;BME280;34587;48.816;9.420;2024-02-14T17:03:20;99279.06;;;11.91;100.00
48792;BME280;34587;48.816;9.420;2024-02-14T17:05:45;99274.84;;;11.82;100.00